createdAt,value
2023-02-11T07:17:40.651Z,27.58
2023-02-11T07:20:44.872Z,25.95
2023-02-11T07:24:20.400Z,32.65
2023-02-11T07:27:24.248Z,33.88
2023-02-11T07:30:54.413Z,24.65
2023-02-11T07:37:28.283Z,28.42
2023-02-11T07:40:32.182Z,27.40
2023-02-11T07:43:36.020Z,27.23
2023-02-11T07:46:43.114Z,27.95
2023-02-11T07:50:06.981Z,31.23
2023-02-11T07:53:27.262Z,29.92
2023-02-11T07:56:35.239Z,26.55
2023-02-11T07:59:39.262Z,31.42
2023-02-11T08:03:06.685Z,29.23
2023-02-11T08:06:14.169Z,28.62
2023-02-11T08:09:19.166Z,32.88
2023-02-11T09:01:55.264Z,25.37
2023-02-11T09:24:12.634Z,32.63
2023-02-11T09:27:15.573Z,29.77
2023-02-11T09:30:18.951Z,32.70
2023-02-11T09:33:21.816Z,33.08
2023-02-11T09:36:46.015Z,34.63
2023-02-11T09:39:49.952Z,30.90
2023-02-11T09:43:22.259Z,23.08
2023-02-11T09:46:50.202Z,25.15
2023-02-11T09:50:00.744Z,27.62
2023-02-11T09:53:28.762Z,29.35
2023-02-11T09:56:55.618Z,25.15
2023-02-11T09:59:58.667Z,32.05
2023-02-11T10:03:39.937Z,38.95
2023-02-11T10:07:21.291Z,28.77
2023-02-11T10:10:44.736Z,28.15
2023-02-11T10:14:02.012Z,27.20
2023-02-11T10:25:00.296Z,26.42
2023-02-11T10:28:15.932Z,29.65
2023-02-11T10:31:24.850Z,28.52
2023-02-11T18:14:48.787Z,43.58
2023-02-11T18:17:52.511Z,38.95
2023-02-11T18:20:57.502Z,34.42
2023-02-11T18:24:06.429Z,36.95
2023-02-11T18:27:10.462Z,37.28
2023-02-11T18:30:16.931Z,40.92
2023-02-11T18:33:19.988Z,46.83
2023-02-11T18:36:24.410Z,205.00
2023-02-11T18:39:28.319Z,126.82
2023-02-11T18:42:34.303Z,39.65
2023-02-11T18:45:37.450Z,32.60
2023-02-11T18:49:00.901Z,39.92
2023-02-11T18:52:04.632Z,41.08
2023-02-11T18:55:08.753Z,44.55
2023-02-11T18:58:13.386Z,47.05
2023-02-11T19:01:21.065Z,47.42
2023-02-11T19:04:24.756Z,42.90
2023-02-11T19:07:28.612Z,41.40
2023-02-11T19:10:31.945Z,42.95
2023-02-11T19:13:35.161Z,34.95
2023-02-11T19:16:41.578Z,37.83
2023-02-11T19:19:45.147Z,35.78
2023-02-11T19:22:48.394Z,41.45
2023-02-11T19:25:52.071Z,34.47
2023-02-11T19:28:55.980Z,37.58
2023-02-11T19:31:59.703Z,34.78
2023-02-11T19:35:03.971Z,31.12
2023-02-11T19:38:07.142Z,23.17
2023-02-11T19:41:19.657Z,19.87
2023-02-11T19:44:31.224Z,22.23
2023-02-11T19:47:35.665Z,16.95
2023-02-11T19:50:39.635Z,25.55
2023-02-11T19:53:44.223Z,22.83
2023-02-11T19:56:48.868Z,22.15
2023-02-11T19:59:55.050Z,25.60
2023-02-11T20:02:58.734Z,27.00
2023-02-11T20:06:07.455Z,23.12
2023-02-11T20:09:13.841Z,17.37
2023-02-11T20:12:37.506Z,11.88
2023-02-11T20:56:25.793Z,15.15
2023-02-11T20:59:29.687Z,14.43
2023-02-11T21:02:33.075Z,13.35
2023-02-11T21:05:36.683Z,12.60
2023-02-11T21:08:40.479Z,11.43
2023-02-11T21:11:44.302Z,12.95
2023-02-11T21:14:47.744Z,12.63
2023-02-11T21:17:52.339Z,11.55
2023-02-11T21:20:55.814Z,11.82
2023-02-11T21:24:18.856Z,9.43
2023-02-11T21:27:23.371Z,15.27
2023-02-11T21:30:26.973Z,10.23
2023-02-11T21:33:51.030Z,15.23
2023-02-11T21:36:54.444Z,12.55
2023-02-11T21:39:58.527Z,17.10
2023-02-11T21:43:02.014Z,17.12
2023-02-11T21:46:12.283Z,15.82
2023-02-11T21:49:15.799Z,14.00
2023-02-11T21:52:38.779Z,14.20
2023-02-11T21:55:42.289Z,13.48
2023-02-11T21:58:46.513Z,13.52
2023-02-11T22:01:50.375Z,8.18
2023-02-11T22:04:54.010Z,11.80
2023-02-11T22:07:57.167Z,15.02
2023-02-11T22:11:06.693Z,14.70
2023-02-11T22:14:11.033Z,16.35
2023-02-11T22:17:14.546Z,12.77
2023-02-11T22:20:17.723Z,12.18
2023-02-11T22:23:21.041Z,12.80
2023-02-11T22:26:25.535Z,11.80
2023-02-11T22:29:28.904Z,16.25
2023-02-11T22:32:32.046Z,12.30
2023-02-11T22:35:35.286Z,12.05
2023-02-11T22:38:38.073Z,10.95
2023-02-11T22:41:43.343Z,15.18
2023-02-11T22:44:46.389Z,14.15
2023-02-11T22:47:49.416Z,17.15
2023-02-11T22:50:52.176Z,11.15
2023-02-11T22:54:01.641Z,14.70
2023-02-11T22:57:04.704Z,15.60
2023-02-11T23:00:10.573Z,13.65
2023-02-11T23:03:13.588Z,14.65
2023-02-11T23:06:17.422Z,12.65
2023-02-11T23:09:20.617Z,15.98
2023-02-11T23:12:23.725Z,15.13
2023-02-11T23:15:26.516Z,13.35
2023-02-11T23:18:29.764Z,16.27
2023-02-11T23:21:34.251Z,13.02
2023-02-11T23:24:37.413Z,17.65
2023-02-11T23:27:40.222Z,15.85
2023-02-11T23:30:43.289Z,12.88
2023-02-11T23:33:47.434Z,14.63
2023-02-11T23:36:50.766Z,14.38
2023-02-11T23:39:53.525Z,16.85
2023-02-11T23:42:56.698Z,16.55
2023-02-11T23:46:00.053Z,14.10
2023-02-11T23:49:04.446Z,12.57
2023-02-11T23:52:07.442Z,11.57
2023-02-11T23:55:10.860Z,14.13
2023-02-11T23:58:14.963Z,15.50
